Sumperk, Czech Republic
Current Conditions -  °F | °C
As of 4:00 PM on Wednesday 26 Nov 2014 (Local Time) from LKMT Reporting Station
Broken Clouds Broken Clouds  
Wind Chill: 39°   Ceiling: 4400
Heat Index: 39°   Visibility: 3mi
Dew Point: 34°   Wind: 3mph
Humidity: 81%   Direction: 60°ENE
Pressure: 30.21"   Gusts: NA
Location:  49.97°N, 16.97°E
Report Text: LKMT 261400Z 06003KT 030V100 5000 BKN044 04/01 Q1023 NOSIG
Loading
Personal Weather Stations






























Interactive Weather Map New forecast layout! Learn more

10-Day Weather Forecast

Advertisements
Track Severe Weather on mobile